Time;durP1;ratioP1;P1;durP2;ratioP2;P2;SDS_P1;SDS_P2;PMS_P1;PMS_P2;Temp;Humidity;BMP_temperature;BMP_pressure;BME280_temperature;BME280_humidity;BME280_pressure;Samples;Min_cycle;Max_cycle;Signal;HPM_P1;HPM_P2
2023/09/02 00:02:20;;;;;;;10.05;9.10;;;;;;;20.88;45.66;94280.16;5001714;28;20092;-76
2023/09/02 00:04:45;;;;;;;10.20;9.30;;;;;;;20.77;45.52;94273.03;4999542;28;20045;-77
2023/09/02 00:07:11;;;;;;;11.15;9.15;;;;;;;20.74;45.85;94268.34;5019988;28;20026;-76
2023/09/02 00:09:36;;;;;;;10.25;9.27;;;;;;;20.73;45.90;94266.81;5018237;28;20038;-78
2023/09/02 00:12:02;;;;;;;9.95;9.05;;;;;;;20.78;45.83;94274.56;5000340;28;20037;-77
2023/09/02 00:14:27;;;;;;;10.10;9.10;;;;;;;20.73;45.99;94283.78;5017855;28;20523;-76
2023/09/02 00:16:53;;;;;;;9.82;8.95;;;;;;;20.67;46.19;94273.66;5019006;28;20037;-77
2023/09/02 00:19:18;;;;;;;10.35;9.15;;;;;;;20.67;46.05;94281.78;5019983;28;20025;-77
2023/09/02 00:21:43;;;;;;;9.48;8.57;;;;;;;20.55;46.49;94272.72;5018388;28;20572;-78
2023/09/02 00:24:09;;;;;;;11.02;9.95;;;;;;;20.51;46.42;94269.22;5012588;28;20034;-79
2023/09/02 00:26:34;;;;;;;10.25;8.70;;;;;;;20.62;46.41;94284.78;5018871;28;20099;-77
2023/09/02 00:29:00;;;;;;;10.18;9.27;;;;;;;20.49;46.27;94274.19;5016244;28;20033;-77
2023/09/02 00:31:26;;;;;;;9.45;8.45;;;;;;;20.37;46.60;94271.72;5020375;28;20022;-76
2023/09/02 00:33:52;;;;;;;9.77;8.88;;;;;;;20.41;46.76;94277.16;5021078;28;20071;-77
2023/09/02 00:36:20;;;;;;;9.93;8.98;;;;;;;20.36;46.72;94272.06;5016821;28;20485;-76
2023/09/02 00:38:45;;;;;;;10.07;9.10;;;;;;;20.41;46.73;94272.53;5018839;28;20044;-77
2023/09/02 00:41:35;;;;;;;10.40;9.30;;;;;;;20.37;46.60;94290.63;5017957;28;20044;-76
2023/09/02 00:44:04;;;;;;;11.40;10.35;;;;;;;20.26;46.96;94273.47;5018944;28;20102;-77
2023/09/02 00:46:30;;;;;;;10.48;8.90;;;;;;;20.26;46.85;94292.38;5018616;28;20388;-77
2023/09/02 00:48:55;;;;;;;10.52;9.00;;;;;;;20.28;47.08;94295.50;5016631;28;20030;-76
2023/09/02 00:51:20;;;;;;;10.25;9.32;;;;;;;20.24;47.14;94291.94;5018323;28;20044;-78
2023/09/02 00:53:46;;;;;;;10.40;9.32;;;;;;;20.13;47.12;94283.66;5016191;28;20045;-77
2023/09/02 00:56:13;;;;;;;10.27;9.38;;;;;;;20.19;47.13;94292.25;5019588;28;20488;-77
2023/09/02 00:58:40;;;;;;;10.20;9.30;;;;;;;20.19;47.03;94292.25;5017006;28;20028;-77
2023/09/02 01:01:06;;;;;;;9.38;8.48;;;;;;;20.14;47.15;94292.53;5019356;28;20029;-77
2023/09/02 01:03:35;;;;;;;9.50;8.60;;;;;;;20.15;47.05;94292.16;5016971;28;20519;-77
2023/09/02 01:06:02;;;;;;;11.60;9.82;;;;;;;20.09;47.11;94284.75;5019190;28;20049;-77
2023/09/02 01:08:33;;;;;;;10.10;9.07;;;;;;;20.08;47.22;94285.88;5016921;28;20053;-77
2023/09/02 01:10:59;;;;;;;10.85;9.75;;;;;;;19.98;47.26;94273.00;5018129;28;20500;-77
2023/09/02 01:13:25;;;;;;;12.63;9.68;;;;;;;19.97;47.63;94274.13;5016154;28;20795;-77
2023/09/02 01:15:53;;;;;;;10.35;9.38;;;;;;;19.98;47.65;94281.09;5001242;28;20172;-77
2023/09/02 01:18:18;;;;;;;11.05;9.95;;;;;;;19.93;47.66;94282.19;5016329;28;20042;-77
2023/09/02 01:21:08;;;;;;;13.20;10.48;;;;;;;19.99;47.68;94286.13;5018392;28;20378;-77
2023/09/02 01:23:58;;;;;;;9.82;8.82;;;;;;;19.93;47.70;94290.28;5016531;28;20030;-77
2023/09/02 01:26:24;;;;;;;11.13;9.85;;;;;;;19.90;47.79;94290.19;4990182;28;20049;-77
2023/09/02 01:28:55;;;;;;;10.45;9.35;;;;;;;19.86;48.14;94294.75;5017354;28;20049;-77
2023/09/02 01:31:24;;;;;;;10.20;9.20;;;;;;;19.78;47.95;94277.69;4992836;28;20029;-76
2023/09/02 01:33:53;;;;;;;10.70;9.60;;;;;;;19.88;47.99;94292.50;5017434;28;20643;-77
2023/09/02 01:36:22;;;;;;;12.27;11.07;;;;;;;19.85;48.27;94287.81;5018138;28;20033;-76
2023/09/02 01:38:51;;;;;;;10.40;9.40;;;;;;;19.78;48.30;94282.28;5000939;28;20042;-76
2023/09/02 01:41:17;;;;;;;10.38;9.48;;;;;;;19.72;48.46;94287.97;4997242;28;20025;-77
2023/09/02 01:43:44;;;;;;;10.70;9.27;;;;;;;19.69;48.29;94280.63;4992585;28;20034;-77
2023/09/02 01:46:12;;;;;;;10.82;9.80;;;;;;;19.77;48.41;94291.53;5015253;28;20490;-76
2023/09/02 01:48:37;;;;;;;11.05;9.65;;;;;;;19.67;48.54;94292.88;5018434;28;20159;-76
2023/09/02 01:51:03;;;;;;;10.85;9.73;;;;;;;19.76;48.48;94293.44;4999745;28;20838;-77
2023/09/02 01:53:29;;;;;;;10.82;9.07;;;;;;;19.70;48.39;94278.69;5017759;28;20034;-77
2023/09/02 01:55:56;;;;;;;9.65;8.75;;;;;;;19.74;48.32;94293.81;4998899;28;20044;-77
2023/09/02 01:58:22;;;;;;;10.38;9.20;;;;;;;19.64;48.30;94277.44;5016678;28;20028;-77
2023/09/02 02:00:47;;;;;;;9.35;8.55;;;;;;;19.65;48.31;94290.53;5018918;28;20037;-77
2023/09/02 02:03:37;;;;;;;11.07;9.35;;;;;;;19.46;48.40;94260.91;4995158;28;20554;-77
2023/09/02 02:06:05;;;;;;;11.63;10.52;;;;;;;19.61;48.58;94294.31;5016256;28;20509;-77
2023/09/02 02:08:43;;;;;;;11.13;9.32;;;;;;;19.56;48.29;94292.69;5015290;28;20439;-77
2023/09/02 02:11:09;;;;;;;10.07;9.18;;;;;;;19.64;48.67;94304.41;5017005;28;20042;-77
2023/09/02 02:13:35;;;;;;;10.43;9.43;;;;;;;19.58;48.64;94295.03;4999800;28;20029;-77
2023/09/02 02:16:00;;;;;;;10.63;8.50;;;;;;;19.57;48.41;94298.88;5001116;28;20486;-77
2023/09/02 02:18:26;;;;;;;10.05;8.25;;;;;;;19.54;48.80;94300.38;5014883;28;20038;-77
2023/09/02 02:21:02;;;;;;;9.50;8.63;;;;;;;19.38;49.13;94296.97;5018946;28;20041;-77
2023/09/02 02:23:28;;;;;;;9.18;8.27;;;;;;;19.47;48.86;94297.53;5017478;28;20108;-76
2023/09/02 02:26:07;;;;;;;9.18;8.30;;;;;;;19.52;48.60;94302.66;5016139;28;20680;-77
2023/09/02 02:28:32;;;;;;;9.80;8.90;;;;;;;19.53;48.61;94298.81;4994540;28;20021;-77
2023/09/02 02:30:58;;;;;;;9.20;8.15;;;;;;;19.51;48.36;94305.69;5000900;28;20060;-76
2023/09/02 02:33:24;;;;;;;9.25;8.27;;;;;;;19.40;48.67;94299.31;5019143;28;20052;-76
2023/09/02 02:35:50;;;;;;;9.45;8.63;;;;;;;19.36;48.83;94288.44;5004974;28;20034;-76
2023/09/02 02:38:16;;;;;;;9.32;8.43;;;;;;;19.28;48.95;94286.75;5018520;28;20578;-77
2023/09/02 02:40:41;;;;;;;11.55;9.77;;;;;;;19.32;49.07;94303.78;5022039;28;20044;-77
2023/09/02 02:43:06;;;;;;;9.85;8.85;;;;;;;19.32;49.14;94299.16;5020380;28;20025;-76
2023/09/02 02:45:32;;;;;;;8.88;7.75;;;;;;;19.32;49.33;94298.38;5018822;28;20091;-77
2023/09/02 02:47:57;;;;;;;8.30;7.53;;;;;;;19.19;49.26;94280.81;5001100;28;20340;-77
2023/09/02 02:50:23;;;;;;;8.57;7.78;;;;;;;19.27;48.97;94288.66;5018028;28;20051;-77
2023/09/02 02:52:49;;;;;;;8.70;7.80;;;;;;;19.30;48.98;94297.97;5021663;28;20049;-77
2023/09/02 02:55:15;;;;;;;9.98;7.75;;;;;;;19.28;49.05;94306.41;5018903;28;20642;-76
2023/09/02 02:57:40;;;;;;;9.15;8.25;;;;;;;19.13;49.23;94291.09;5020370;28;20053;-77
2023/09/02 03:00:08;;;;;;;8.80;7.97;;;;;;;19.13;49.18;94295.69;5020334;28;20529;-76
2023/09/02 03:02:34;;;;;;;7.45;6.75;;;;;;;19.08;49.32;94290.59;5020331;28;20475;-77
2023/09/02 03:04:59;;;;;;;8.85;7.75;;;;;;;19.17;49.80;94312.72;5001480;28;20044;-77
2023/09/02 03:07:25;;;;;;;8.88;8.07;;;;;;;19.06;49.42;94304.44;5021854;28;20032;-77
2023/09/02 03:09:50;;;;;;;9.77;7.93;;;;;;;19.11;49.50;94314.16;5019142;28;20035;-76
2023/09/02 03:12:15;;;;;;;8.43;7.63;;;;;;;19.05;49.41;94304.78;5020243;28;20041;-77
2023/09/02 03:14:41;;;;;;;8.60;7.80;;;;;;;18.99;49.57;94301.59;5020230;28;20096;-76
2023/09/02 03:17:07;;;;;;;9.23;8.32;;;;;;;18.98;49.59;94310.81;5019240;28;20034;-78
2023/09/02 03:19:32;;;;;;;8.48;7.68;;;;;;;18.99;49.67;94317.75;5017904;28;20404;-77
2023/09/02 03:21:58;;;;;;;10.27;7.78;;;;;;;18.97;49.66;94306.53;5021307;28;20081;-78
2023/09/02 03:24:23;;;;;;;9.07;8.07;;;;;;;18.96;49.73;94313.09;5019701;28;20099;-77
2023/09/02 03:26:48;;;;;;;8.30;7.50;;;;;;;18.85;50.23;94296.69;5020215;28;20129;-77
2023/09/02 03:29:14;;;;;;;8.48;7.68;;;;;;;18.95;49.67;94303.44;5018158;28;20736;-77
2023/09/02 03:31:39;;;;;;;9.55;8.50;;;;;;;18.97;49.85;94316.56;5018368;28;20045;-77
2023/09/02 03:34:05;;;;;;;10.52;8.73;;;;;;;18.91;49.86;94304.50;5018995;28;20018;-76
2023/09/02 03:36:31;;;;;;;9.57;8.60;;;;;;;18.86;49.91;94305.56;5019754;28;20041;-77
2023/09/02 03:38:56;;;;;;;10.48;8.93;;;;;;;18.82;50.14;94300.06;5018091;28;20037;-78
2023/09/02 03:41:23;;;;;;;9.60;8.63;;;;;;;18.84;50.05;94305.13;5019399;28;20164;-77
2023/09/02 03:43:49;;;;;;;8.65;7.78;;;;;;;18.75;49.92;94302.63;5002615;28;20065;-77
2023/09/02 03:46:14;;;;;;;9.63;8.63;;;;;;;18.80;50.06;94315.03;5017835;28;20033;-78
2023/09/02 03:48:40;;;;;;;8.63;7.82;;;;;;;18.76;49.99;94309.59;5020043;28;20040;-78
2023/09/02 03:51:11;;;;;;;9.85;8.63;;;;;;;18.80;50.06;94315.81;5017873;28;20032;-77
2023/09/02 03:53:37;;;;;;;12.95;8.13;;;;;;;18.78;50.11;94320.78;5017593;28;20041;-77
2023/09/02 03:56:03;;;;;;;9.85;8.85;;;;;;;18.70;50.49;94321.75;5020024;28;20591;-78
2023/09/02 03:58:29;;;;;;;8.73;7.93;;;;;;;18.70;50.69;94321.75;5019073;28;20034;-76
2023/09/02 04:00:55;;;;;;;10.25;9.25;;;;;;;18.64;50.68;94315.06;5019159;28;20112;-77
2023/09/02 04:03:21;;;;;;;9.57;8.65;;;;;;;18.56;50.55;94320.63;5021061;28;20037;-78
2023/09/02 04:05:48;;;;;;;9.30;8.35;;;;;;;18.64;50.91;94323.13;5018435;28;20044;-77
2023/09/02 04:08:17;;;;;;;8.88;8.07;;;;;;;18.60;51.11;94333.06;5017845;28;20037;-78
2023/09/02 04:10:42;;;;;;;10.27;8.85;;;;;;;18.51;50.89;94313.63;5000301;28;20112;-77
2023/09/02 04:13:08;;;;;;;11.73;9.38;;;;;;;18.57;51.38;94327.59;5001685;28;20033;-78
2023/09/02 04:15:33;;;;;;;9.55;8.55;;;;;;;18.60;51.27;94332.28;5017947;28;20037;-76
2023/09/02 04:17:58;;;;;;;9.73;8.73;;;;;;;18.48;51.19;94303.53;5019359;28;20033;-77
2023/09/02 04:20:24;;;;;;;9.10;8.20;;;;;;;18.44;51.10;94297.28;4995337;28;20065;-77
2023/09/02 04:22:49;;;;;;;9.75;8.75;;;;;;;18.52;51.46;94309.78;5000723;28;20033;-76
2023/09/02 04:25:16;;;;;;;9.73;8.80;;;;;;;18.60;51.34;94324.19;5018731;28;20147;-76
2023/09/02 04:27:41;;;;;;;9.85;8.93;;;;;;;18.62;51.68;94333.50;5003670;28;20099;-76
2023/09/02 04:30:07;;;;;;;10.52;9.48;;;;;;;18.63;51.77;94334.25;5016565;28;20064;-77
2023/09/02 04:32:32;;;;;;;9.60;8.38;;;;;;;18.39;51.85;94294.84;5019499;28;20521;-77
2023/09/02 04:34:58;;;;;;;8.85;8.05;;;;;;;18.61;51.99;94328.44;5016446;28;20038;-77
2023/09/02 04:37:24;;;;;;;10.82;8.63;;;;;;;18.60;51.98;94338.44;5018559;28;20025;-77
2023/09/02 04:39:49;;;;;;;9.43;8.52;;;;;;;18.46;52.53;94305.81;5018520;28;20041;-77
2023/09/02 04:42:14;;;;;;;10.25;9.25;;;;;;;18.73;52.26;94336.44;5001385;28;20107;-76
2023/09/02 04:44:40;;;;;;;9.70;8.02;;;;;;;18.72;52.54;94324.91;5019094;28;20057;-77
2023/09/02 04:47:06;;;;;;;8.75;7.93;;;;;;;18.82;52.30;94329.72;5001119;28;20401;-78
2023/09/02 04:49:32;;;;;;;9.93;8.93;;;;;;;18.72;52.27;94321.41;5017220;28;20724;-78
2023/09/02 04:51:58;;;;;;;11.25;10.05;;;;;;;18.84;52.19;94324.75;5019187;28;20112;-78
2023/09/02 04:54:23;;;;;;;13.02;9.88;;;;;;;18.99;51.90;94341.22;5017246;28;20052;-77
2023/09/02 04:56:49;;;;;;;17.25;11.48;;;;;;;19.07;51.49;94345.63;4992203;28;20037;-77
2023/09/02 04:59:15;;;;;;;12.95;11.02;;;;;;;18.99;51.38;94322.38;5017734;28;21003;-77
2023/09/02 05:01:40;;;;;;;16.55;9.75;;;;;;;19.08;51.52;94331.81;5019035;28;22316;-78
2023/09/02 05:04:06;;;;;;;15.73;13.18;;;;;;;19.22;51.25;94342.88;5017648;28;20362;-78
2023/09/02 05:06:31;;;;;;;14.85;12.30;;;;;;;19.25;50.99;94336.78;5019398;28;20034;-77
2023/09/02 05:08:57;;;;;;;15.77;12.43;;;;;;;19.20;51.50;94328.19;5017304;28;20040;-78
2023/09/02 05:11:22;;;;;;;15.05;13.35;;;;;;;19.38;51.82;94342.81;5018338;28;20124;-78
2023/09/02 05:13:48;;;;;;;16.23;13.85;;;;;;;19.50;51.27;94348.09;5017214;28;20493;-78
2023/09/02 05:16:14;;;;;;;14.90;11.80;;;;;;;19.52;51.19;94342.34;5000331;28;20035;-77
2023/09/02 05:18:39;;;;;;;14.75;11.93;;;;;;;19.67;51.02;94350.34;4997094;28;20552;-78
2023/09/02 05:21:05;;;;;;;15.60;12.60;;;;;;;19.60;51.60;94352.13;5019557;28;20037;-77
2023/09/02 05:23:30;;;;;;;17.85;12.70;;;;;;;19.64;51.24;94342.97;4998142;28;20030;-77
2023/09/02 05:25:56;;;;;;;15.82;12.55;;;;;;;19.83;50.01;94355.66;5000052;28;20127;-77
2023/09/02 05:28:23;;;;;;;15.68;12.73;;;;;;;19.84;49.94;94345.63;4998304;28;20029;-77
2023/09/02 05:30:49;;;;;;;17.88;12.85;;;;;;;19.90;50.25;94354.97;5016960;28;20091;-78
2023/09/02 05:33:16;;;;;;;15.95;13.07;;;;;;;19.79;50.39;94348.63;5015688;28;20041;-77
2023/09/02 05:35:42;;;;;;;17.70;13.43;;;;;;;19.80;50.65;94345.56;4999108;28;20038;-76
2023/09/02 05:38:07;;;;;;;16.33;14.27;;;;;;;19.77;51.31;94340.09;5016039;28;20029;-77
2023/09/02 05:40:32;;;;;;;15.23;12.95;;;;;;;19.97;50.85;94336.22;5017015;28;20025;-77
2023/09/02 05:42:58;;;;;;;22.42;14.50;;;;;;;20.13;48.97;94347.69;5017662;28;20576;-77
2023/09/02 05:45:23;;;;;;;18.38;12.60;;;;;;;20.15;49.78;94354.28;5015616;28;20072;-76
2023/09/02 05:47:49;;;;;;;17.35;12.70;;;;;;;19.98;48.83;94335.09;5017741;28;20385;-77
2023/09/02 05:50:14;;;;;;;15.13;13.45;;;;;;;20.03;48.68;94359.09;5016651;28;20412;-77
2023/09/02 05:52:40;;;;;;;14.77;13.25;;;;;;;20.04;48.87;94352.56;5016957;28;20045;-78
2023/09/02 05:55:06;;;;;;;14.35;12.80;;;;;;;20.06;48.98;94348.34;5000586;28;20026;-78
2023/09/02 05:57:32;;;;;;;16.80;12.57;;;;;;;20.01;48.95;94345.94;5017481;28;20071;-78
2023/09/02 05:59:58;;;;;;;17.52;13.30;;;;;;;20.00;49.36;94346.28;4998528;28;20123;-78
2023/09/02 06:02:23;;;;;;;15.85;13.35;;;;;;;20.00;49.90;94355.16;5016787;28;20030;-79
2023/09/02 06:04:49;;;;;;;16.13;14.40;;;;;;;19.98;50.47;94362.88;5017676;28;20461;-79
2023/09/02 06:07:14;;;;;;;18.50;13.75;;;;;;;20.16;49.98;94363.16;4999719;28;20379;-77
2023/09/02 06:09:39;;;;;;;18.88;14.20;;;;;;;20.18;49.80;94358.22;5017745;28;20477;-78
2023/09/02 06:12:05;;;;;;;15.30;13.65;;;;;;;20.37;49.30;94368.97;5000914;28;20041;-78
2023/09/02 06:14:30;;;;;;;17.13;13.00;;;;;;;20.33;48.76;94368.13;5017097;28;20875;-78
2023/09/02 06:16:55;;;;;;;15.07;12.60;;;;;;;20.47;49.28;94372.97;4999192;28;20037;-77
2023/09/02 06:19:21;;;;;;;14.55;12.20;;;;;;;20.42;49.02;94365.94;5018353;28;20586;-78
2023/09/02 06:21:46;;;;;;;15.02;13.18;;;;;;;20.59;48.37;94365.44;5017865;28;20029;-77
2023/09/02 06:24:12;;;;;;;14.93;11.90;;;;;;;20.78;47.93;94374.59;5014905;28;20037;-77
2023/09/02 06:26:37;;;;;;;17.58;13.45;;;;;;;20.68;47.22;94359.00;5014771;28;20127;-78
2023/09/02 06:29:02;;;;;;;18.13;12.55;;;;;;;20.75;47.37;94367.22;5016828;28;20021;-78
2023/09/02 06:31:28;;;;;;;14.05;12.63;;;;;;;20.70;47.62;94368.31;4998393;28;20037;-78
2023/09/02 06:33:53;;;;;;;17.10;12.10;;;;;;;20.71;47.41;94369.09;4998574;28;20022;-79
2023/09/02 06:36:21;;;;;;;13.80;12.40;;;;;;;20.74;47.37;94371.84;5015581;28;20041;-78
2023/09/02 06:38:46;;;;;;;17.83;12.52;;;;;;;20.84;47.36;94375.84;4999583;28;20037;-78
2023/09/02 06:41:16;;;;;;;17.00;12.88;;;;;;;20.82;47.28;94378.13;5015676;28;20045;-79
2023/09/02 06:43:42;;;;;;;16.25;12.43;;;;;;;20.77;46.77;94354.13;5016191;28;20133;-77
2023/09/02 06:46:14;;;;;;;17.52;13.25;;;;;;;20.89;46.68;94372.84;5016797;28;20059;-77
2023/09/02 06:48:40;;;;;;;13.80;12.38;;;;;;;20.93;47.61;94365.56;4997460;28;20041;-79
2023/09/02 06:51:05;;;;;;;17.50;12.23;;;;;;;20.94;46.71;94372.53;5016633;28;20511;-79
2023/09/02 06:53:30;;;;;;;13.82;12.30;;;;;;;20.72;46.51;94370.66;4996819;28;20559;-79
2023/09/02 06:55:56;;;;;;;13.85;12.23;;;;;;;20.76;46.61;94368.78;4998433;28;20045;-78
2023/09/02 06:58:21;;;;;;;13.30;10.25;;;;;;;20.93;46.45;94373.66;5015226;28;20381;-77
2023/09/02 07:00:48;;;;;;;11.88;10.75;;;;;;;20.97;46.70;94369.88;5017500;28;20041;-78
2023/09/02 07:03:14;;;;;;;15.88;11.90;;;;;;;20.76;47.70;94364.16;5014847;28;20049;-78
2023/09/02 07:05:39;;;;;;;13.98;11.43;;;;;;;20.84;48.08;94373.13;5014865;28;20440;-78
2023/09/02 07:08:04;;;;;;;12.45;11.25;;;;;;;21.02;46.65;94356.03;5017745;28;20037;-78
2023/09/02 07:10:30;;;;;;;12.68;11.40;;;;;;;21.18;47.54;94374.78;4996782;28;20408;-79
2023/09/02 07:12:55;;;;;;;15.50;11.27;;;;;;;21.32;46.87;94369.56;4998544;28;20025;-78
2023/09/02 07:15:21;;;;;;;15.02;10.73;;;;;;;21.45;46.07;94365.50;5015760;28;20522;-77
2023/09/02 07:17:46;;;;;;;16.50;11.32;;;;;;;21.53;46.16;94357.44;5002139;28;20045;-78
2023/09/02 07:20:12;;;;;;;16.48;10.18;;;;;;;21.67;45.08;94369.25;5018283;28;20087;-77
2023/09/02 07:22:37;;;;;;;13.98;10.70;;;;;;;21.81;45.30;94376.75;5017614;28;20326;-79
2023/09/02 07:25:06;;;;;;;13.90;11.07;;;;;;;21.82;44.76;94376.38;5003068;28;20434;-77
2023/09/02 07:27:32;;;;;;;16.40;10.55;;;;;;;21.84;45.15;94367.91;5019791;28;20041;-77
2023/09/02 07:29:59;;;;;;;13.75;11.40;;;;;;;21.83;45.95;94377.94;5019369;28;20382;-78
2023/09/02 07:32:24;;;;;;;13.65;10.85;;;;;;;21.94;44.86;94367.22;5000341;28;20095;-78
2023/09/02 07:34:50;;;;;;;12.07;10.75;;;;;;;21.51;45.73;94371.34;5018821;28;20045;-78
2023/09/02 07:37:15;;;;;;;15.93;9.93;;;;;;;21.74;44.97;94368.56;5020087;28;20599;-77
2023/09/02 07:39:41;;;;;;;12.60;10.23;;;;;;;21.85;45.04;94353.22;5018272;28;20061;-78
2023/09/02 07:42:06;;;;;;;12.00;9.57;;;;;;;21.86;44.90;94343.91;5018523;28;20124;-78
2023/09/02 07:44:32;;;;;;;13.68;10.55;;;;;;;22.12;45.01;94364.69;5019369;28;20034;-78
2023/09/02 07:46:59;;;;;;;15.60;10.15;;;;;;;22.33;45.40;94372.25;5018685;28;20033;-78
2023/09/02 07:49:24;;;;;;;13.07;10.88;;;;;;;22.31;44.72;94356.38;5020810;28;20031;-78
2023/09/02 07:51:50;;;;;;;10.77;9.68;;;;;;;22.35;44.10;94359.09;5018460;28;20476;-77
2023/09/02 07:54:15;;;;;;;11.38;10.18;;;;;;;22.18;44.14;94363.97;5018292;28;20577;-77
2023/09/02 07:56:41;;;;;;;14.68;10.05;;;;;;;21.87;44.73;94359.03;5016949;28;20045;-79
2023/09/02 07:59:06;;;;;;;10.48;8.63;;;;;;;21.87;45.06;94367.13;5020119;28;20552;-78
2023/09/02 08:01:32;;;;;;;11.25;10.02;;;;;;;21.97;44.78;94366.47;5017329;28;20032;-79
2023/09/02 08:03:58;;;;;;;10.25;8.88;;;;;;;22.33;44.71;94383.09;5020376;28;20116;-78
2023/09/02 08:06:23;;;;;;;10.35;9.38;;;;;;;22.40;43.61;94385.84;5000383;28;20033;-79
2023/09/02 08:08:48;;;;;;;9.98;8.98;;;;;;;22.53;42.59;94379.78;5001657;28;20041;-78
2023/09/02 08:11:18;;;;;;;11.20;9.85;;;;;;;22.67;42.21;94381.84;5018820;28;22155;-77
2023/09/02 08:13:44;;;;;;;11.98;9.68;;;;;;;22.72;42.53;94374.13;5000733;28;20149;-78
2023/09/02 08:16:09;;;;;;;10.70;8.90;;;;;;;22.66;42.82;94369.44;5019431;28;20041;-78
2023/09/02 08:18:35;;;;;;;10.68;9.10;;;;;;;22.69;42.95;94374.09;5017040;28;20057;-77
2023/09/02 08:21:01;;;;;;;10.70;9.57;;;;;;;22.51;43.32;94376.66;5001793;28;20037;-78
2023/09/02 08:23:26;;;;;;;12.93;8.75;;;;;;;22.54;43.40;94367.00;5018279;28;20320;-78
2023/09/02 08:25:52;;;;;;;10.02;8.07;;;;;;;22.74;43.44;94376.44;5018024;28;20507;-78
2023/09/02 08:28:17;;;;;;;12.73;8.70;;;;;;;22.71;42.62;94366.38;5017031;28;20029;-79
2023/09/02 08:30:44;;;;;;;10.18;9.13;;;;;;;22.88;44.27;94382.00;5018309;28;20132;-78
2023/09/02 08:33:09;;;;;;;10.85;8.70;;;;;;;22.91;42.33;94367.69;5015947;28;20531;-78
2023/09/02 08:35:37;;;;;;;9.57;8.63;;;;;;;22.95;42.88;94381.28;5018647;28;20897;-78
2023/09/02 08:38:06;;;;;;;11.23;10.13;;;;;;;23.00;42.42;94368.13;4998279;28;20033;-78
2023/09/02 08:40:31;;;;;;;9.52;7.50;;;;;;;23.00;41.79;94360.00;5016955;28;21042;-78
2023/09/02 08:43:00;;;;;;;9.63;8.55;;;;;;;23.07;42.23;94373.59;5016672;28;20392;-78
2023/09/02 08:45:28;;;;;;;9.82;8.10;;;;;;;23.03;41.48;94367.38;5018427;28;20029;-78
2023/09/02 08:48:00;;;;;;;9.10;8.27;;;;;;;23.06;41.72;94372.06;4997312;28;20041;-78
2023/09/02 08:50:28;;;;;;;11.82;9.13;;;;;;;22.92;41.72;94371.19;5017543;28;20036;-77
2023/09/02 08:52:54;;;;;;;9.40;8.40;;;;;;;22.92;41.00;94355.69;5018504;28;20094;-79
2023/09/02 08:55:21;;;;;;;9.68;7.97;;;;;;;22.86;42.10;94372.66;5017105;28;20067;-78
2023/09/02 08:57:47;;;;;;;8.48;7.57;;;;;;;22.63;42.47;94362.81;5018493;28;20033;-78
2023/09/02 09:00:12;;;;;;;10.13;7.88;;;;;;;22.90;42.79;94363.44;4999559;28;20041;-78
2023/09/02 09:02:39;;;;;;;11.48;8.43;;;;;;;22.83;41.74;94346.31;5017321;28;20033;-77
2023/09/02 09:05:06;;;;;;;9.48;8.15;;;;;;;22.98;42.15;94356.09;5018069;28;20629;-78
2023/09/02 09:07:32;;;;;;;8.77;7.88;;;;;;;22.85;41.82;94346.69;5017532;28;20156;-79
2023/09/02 09:09:59;;;;;;;15.52;9.52;;;;;;;23.11;41.69;94350.00;5017890;28;20076;-78
2023/09/02 09:12:28;;;;;;;10.43;7.53;;;;;;;23.40;42.32;94358.28;4998835;28;20512;-78
2023/09/02 09:14:55;;;;;;;10.45;6.75;;;;;;;23.44;40.74;94356.34;5016535;28;20045;-77
2023/09/02 09:17:21;;;;;;;10.57;7.18;;;;;;;23.27;42.77;94346.19;5002371;28;20044;-77
2023/09/02 09:19:47;;;;;;;8.05;7.28;;;;;;;23.40;42.29;94350.91;4998827;28;20037;-77
2023/09/02 09:22:14;;;;;;;7.70;6.88;;;;;;;23.54;41.50;94352.94;5016849;28;20036;-77
2023/09/02 09:24:39;;;;;;;9.60;6.55;;;;;;;23.69;41.68;94351.81;5018948;28;20443;-77
2023/09/02 09:27:06;;;;;;;8.52;7.72;;;;;;;23.83;40.76;94351.84;4993203;28;20603;-77
2023/09/02 09:29:42;;;;;;;14.70;7.03;;;;;;;23.84;40.97;94349.91;5018422;28;20064;-77
2023/09/02 09:32:13;;;;;;;9.77;7.45;;;;;;;23.69;40.63;94343.66;5017187;28;20060;-78
2023/09/02 09:34:42;;;;;;;10.30;7.43;;;;;;;23.84;41.08;94347.97;5017077;28;20110;-78
2023/09/02 09:37:08;;;;;;;9.10;7.68;;;;;;;23.88;39.59;94348.75;5019338;28;20477;-78
2023/09/02 09:39:42;;;;;;;8.35;6.90;;;;;;;23.99;40.09;94341.44;5014658;28;20501;-78
2023/09/02 09:42:08;;;;;;;9.98;6.85;;;;;;;23.75;40.38;94341.38;5000177;28;20040;-77
2023/09/02 09:44:34;;;;;;;8.45;7.30;;;;;;;23.44;40.76;94337.34;5017803;28;20037;-77
2023/09/02 09:47:00;;;;;;;6.68;6.07;;;;;;;23.55;40.88;94335.47;4997536;28;20041;-77
2023/09/02 09:49:31;;;;;;;11.70;6.72;;;;;;;23.88;40.56;94347.97;4999737;28;20070;-77
2023/09/02 09:51:59;;;;;;;7.65;6.68;;;;;;;24.02;39.92;94339.84;5014957;28;20033;-77
2023/09/02 09:54:40;;;;;;;8.27;7.25;;;;;;;24.14;41.02;94336.03;5017903;28;20045;-77
2023/09/02 09:57:08;;;;;;;8.05;6.63;;;;;;;24.25;39.59;94334.09;5015472;28;20044;-77
2023/09/02 09:59:35;;;;;;;9.57;6.93;;;;;;;24.27;40.05;94324.41;5016523;28;20025;-78
2023/09/02 10:02:04;;;;;;;7.28;6.57;;;;;;;24.02;39.73;94318.13;5017755;28;20043;-78
2023/09/02 10:04:30;;;;;;;7.10;6.10;;;;;;;23.86;40.34;94320.41;5013862;28;20025;-77
2023/09/02 10:07:03;;;;;;;9.13;6.28;;;;;;;23.86;39.96;94339.44;5014275;28;20115;-77
2023/09/02 10:09:42;;;;;;;7.13;6.35;;;;;;;24.16;40.21;94325.53;5000375;28;20034;-78
2023/09/02 10:12:13;;;;;;;7.68;6.18;;;;;;;24.32;39.69;94315.06;5017793;28;20052;-78
2023/09/02 10:14:42;;;;;;;8.55;5.70;;;;;;;24.36;39.36;94324.00;5016341;28;20439;-77
2023/09/02 10:17:09;;;;;;;7.45;6.60;;;;;;;24.48;40.29;94322.84;5017069;28;20128;-76
2023/09/02 10:19:35;;;;;;;8.90;6.00;;;;;;;24.59;39.67;94323.63;5015931;28;21159;-76
2023/09/02 10:22:02;;;;;;;7.10;6.25;;;;;;;24.56;39.76;94319.72;5018112;28;20091;-77
2023/09/02 10:24:54;;;;;;;6.28;5.35;;;;;;;24.56;37.59;94314.28;5016487;28;20076;-77
2023/09/02 10:27:24;;;;;;;11.07;5.63;;;;;;;24.41;37.60;94312.75;5008237;28;20124;-77
2023/09/02 10:29:57;;;;;;;13.23;6.20;;;;;;;24.56;36.78;94308.84;5016539;28;20048;-78
2023/09/02 10:32:34;;;;;;;6.65;6.03;;;;;;;24.60;37.30;94308.84;4997540;28;20041;-77
2023/09/02 10:35:02;;;;;;;8.38;5.65;;;;;;;24.68;37.69;94305.75;4997660;28;20601;-78
2023/09/02 10:37:34;;;;;;;8.50;6.43;;;;;;;24.82;38.09;94303.03;5018003;28;20025;-77
2023/09/02 10:40:05;;;;;;;7.25;5.90;;;;;;;24.81;37.62;94304.19;5016330;28;20031;-77
2023/09/02 10:42:31;;;;;;;11.38;6.00;;;;;;;24.87;39.08;94298.34;4998665;28;20386;-77
2023/09/02 10:44:57;;;;;;;6.82;6.13;;;;;;;24.95;38.35;94297.16;5016721;28;20041;-76
2023/09/02 10:47:22;;;;;;;6.10;5.50;;;;;;;24.90;37.48;94298.31;5016459;28;20408;-77
2023/09/02 10:49:48;;;;;;;5.57;5.07;;;;;;;24.86;37.78;94281.25;4997752;28;20054;-77
2023/09/02 10:52:15;;;;;;;7.43;6.00;;;;;;;25.00;36.88;94300.25;5018829;28;20021;-77
2023/09/02 10:55:08;;;;;;;7.57;5.65;;;;;;;25.06;35.45;94311.50;5020471;28;20586;-76
2023/09/02 10:57:48;;;;;;;9.32;5.35;;;;;;;25.05;34.97;94285.47;5002112;28;20033;-78
2023/09/02 11:00:25;;;;;;;7.40;5.28;;;;;;;25.10;35.23;94283.13;5020208;28;20083;-77
2023/09/02 11:02:52;;;;;;;6.15;5.35;;;;;;;25.34;34.99;94297.81;5002482;28;20037;-77
2023/09/02 11:05:19;;;;;;;8.13;5.13;;;;;;;25.33;34.17;94295.50;5000029;28;20049;-78
2023/09/02 11:07:45;;;;;;;9.43;5.18;;;;;;;25.35;34.88;94296.66;5002670;28;20053;-77
2023/09/02 11:10:12;;;;;;;5.55;4.97;;;;;;;25.39;34.92;94297.41;5002296;28;20549;-77
2023/09/02 11:12:59;;;;;;;7.07;5.13;;;;;;;25.40;34.62;94301.69;5002392;28;20037;-77
2023/09/02 11:15:25;;;;;;;5.85;5.10;;;;;;;25.42;34.68;94287.69;5021251;28;20156;-76
2023/09/02 11:17:51;;;;;;;5.03;4.53;;;;;;;25.47;35.41;94298.91;5020095;28;20048;-77
2023/09/02 11:20:25;;;;;;;7.43;5.90;;;;;;;25.44;34.53;94267.06;5019206;28;20037;-78
2023/09/02 11:23:01;;;;;;;6.85;6.15;;;;;;;25.59;35.13;94290.31;5002385;28;20137;-76
2023/09/02 11:25:41;;;;;;;7.07;5.75;;;;;;;25.51;34.05;94279.88;5018797;28;20079;-77
2023/09/02 11:28:12;;;;;;;5.43;4.93;;;;;;;25.62;35.29;94281.34;5018773;28;20030;-77